createdAt,value
2023-03-30T00:01:21.288Z,14.17
2023-03-30T00:03:50.087Z,16.37
2023-03-30T00:06:24.669Z,15.90
2023-03-30T00:08:57.523Z,14.33
2023-03-30T00:11:26.595Z,13.87
2023-03-30T00:13:54.429Z,13.83
2023-03-30T00:16:23.136Z,15.57
2023-03-30T00:18:50.882Z,15.70
2023-03-30T00:21:20.785Z,15.00
2023-03-30T00:23:49.121Z,14.63
2023-03-30T00:26:17.680Z,14.83
2023-03-30T00:28:46.352Z,14.13
2023-03-30T00:31:14.285Z,14.63
2023-03-30T00:33:47.016Z,14.20
2023-03-30T00:36:16.837Z,13.77
2023-03-30T00:38:45.891Z,14.50
2023-03-30T00:41:13.943Z,13.77
2023-03-30T00:44:02.531Z,14.30
2023-03-30T00:46:31.474Z,15.00
2023-03-30T00:49:05.475Z,14.53
2023-03-30T00:51:37.464Z,14.30
2023-03-30T00:54:09.700Z,15.20
2023-03-30T00:56:38.323Z,13.67
2023-03-30T00:59:06.116Z,14.33
2023-03-30T01:01:39.356Z,16.30
2023-03-30T01:04:09.560Z,15.83
2023-03-30T01:06:40.316Z,15.70
2023-03-30T01:09:09.145Z,15.70
2023-03-30T01:11:37.115Z,15.67
2023-03-30T01:14:08.117Z,15.50
2023-03-30T01:17:13.736Z,15.53
2023-03-30T01:20:00.457Z,16.33
2023-03-30T01:22:28.388Z,16.13
2023-03-30T01:25:21.574Z,16.10
2023-03-30T01:28:25.587Z,15.70
2023-03-30T01:31:11.613Z,14.80
2023-03-30T01:33:48.239Z,14.37
2023-03-30T01:37:02.957Z,15.70
2023-03-30T01:39:30.818Z,14.33
2023-03-30T01:42:27.362Z,16.03
2023-03-30T01:45:09.886Z,14.90
2023-03-30T01:47:59.067Z,15.57
2023-03-30T01:50:37.479Z,14.53
2023-03-30T01:53:26.010Z,15.47
2023-03-30T01:55:59.358Z,14.50
2023-03-30T01:58:39.717Z,14.37
2023-03-30T02:01:08.786Z,14.93
2023-03-30T02:03:40.895Z,16.03
2023-03-30T02:06:21.026Z,17.23
2023-03-30T02:08:51.049Z,16.40
2023-03-30T02:11:18.938Z,16.00
2023-03-30T02:13:47.703Z,16.27
2023-03-30T02:16:25.133Z,17.73
2023-03-30T02:18:54.822Z,17.20
2023-03-30T02:21:22.677Z,17.10
2023-03-30T02:23:53.480Z,17.27
2023-03-30T02:26:23.002Z,17.60
2023-03-30T02:28:51.894Z,17.67
2023-03-30T02:31:20.053Z,17.67
2023-03-30T02:34:18.812Z,18.10
2023-03-30T02:37:10.345Z,18.33
2023-03-30T02:39:39.469Z,18.63
2023-03-30T02:42:22.653Z,17.83
2023-03-30T02:45:27.596Z,18.80
2023-03-30T02:47:58.289Z,18.30
2023-03-30T02:50:47.277Z,19.33
2023-03-30T02:53:41.382Z,18.77
2023-03-30T02:56:37.731Z,18.43
2023-03-30T02:59:14.202Z,18.47
2023-03-30T03:01:53.369Z,19.83
2023-03-30T03:04:24.220Z,19.60
2023-03-30T03:07:09.393Z,19.67
2023-03-30T03:09:37.513Z,19.20
2023-03-30T03:12:06.085Z,18.30
2023-03-30T03:14:39.150Z,19.00
2023-03-30T03:17:07.232Z,19.53
2023-03-30T03:19:39.828Z,17.97
2023-03-30T03:22:07.735Z,20.30
2023-03-30T03:24:39.835Z,19.40
2023-03-30T03:27:28.890Z,18.77
2023-03-30T03:30:15.103Z,18.90
2023-03-30T03:32:51.856Z,18.67
2023-03-30T03:35:20.345Z,18.70
2023-03-30T03:37:49.385Z,18.27
2023-03-30T03:40:17.673Z,18.73
2023-03-30T03:42:45.783Z,20.67
2023-03-30T03:45:15.557Z,20.37
2023-03-30T03:48:02.208Z,19.00
2023-03-30T03:50:51.340Z,18.80
2023-03-30T03:53:20.251Z,18.00
2023-03-30T03:55:49.871Z,18.53
2023-03-30T03:58:17.610Z,18.03
2023-03-30T04:00:47.377Z,19.80
2023-03-30T04:03:16.553Z,18.33
2023-03-30T04:05:44.748Z,19.27
2023-03-30T04:08:13.687Z,19.97
2023-03-30T04:10:43.357Z,19.83
2023-03-30T04:13:26.349Z,18.60
2023-03-30T04:16:12.653Z,19.87
2023-03-30T04:19:00.682Z,18.23
2023-03-30T04:21:59.107Z,18.93
2023-03-30T04:24:35.679Z,18.17
2023-03-30T04:27:37.839Z,19.53
2023-03-30T04:30:30.669Z,19.70
2023-03-30T04:33:17.636Z,19.63
2023-03-30T04:35:56.276Z,18.70
2023-03-30T04:38:28.214Z,18.50
2023-03-30T04:41:15.250Z,19.00
2023-03-30T04:44:07.028Z,19.20
2023-03-30T04:47:00.643Z,18.07
2023-03-30T04:49:57.792Z,18.63
2023-03-30T04:53:03.791Z,19.27
2023-03-30T04:55:51.921Z,18.40
2023-03-30T04:58:28.451Z,20.20
2023-03-30T05:01:11.842Z,19.13
2023-03-30T05:04:08.615Z,19.63
2023-03-30T05:06:55.576Z,20.00
2023-03-30T05:09:31.540Z,18.00
2023-03-30T05:12:19.294Z,18.70
2023-03-30T05:15:00.522Z,19.87
2023-03-30T05:17:28.658Z,20.00
2023-03-30T05:20:03.916Z,20.03
2023-03-30T05:22:47.108Z,19.97
2023-03-30T05:25:46.513Z,20.53
2023-03-30T05:28:40.683Z,17.60
2023-03-30T05:31:18.281Z,19.97
2023-03-30T05:34:06.745Z,20.27
2023-03-30T05:36:46.688Z,19.73
2023-03-30T05:39:38.934Z,20.13
2023-03-30T05:42:09.326Z,20.37
2023-03-30T05:45:00.054Z,20.53
2023-03-30T05:47:36.709Z,20.03
2023-03-30T05:50:23.396Z,21.80
2023-03-30T05:52:58.189Z,27.70
2023-03-30T05:55:36.730Z,22.43
2023-03-30T05:58:31.990Z,28.40
2023-03-30T06:01:16.176Z,19.23
2023-03-30T06:03:46.546Z,21.27
2023-03-30T06:06:15.112Z,21.13
2023-03-30T06:08:46.750Z,20.40
2023-03-30T06:11:18.819Z,21.47
2023-03-30T06:13:52.814Z,20.90
2023-03-30T06:16:21.598Z,21.93
2023-03-30T06:18:49.420Z,21.30
2023-03-30T06:21:17.734Z,21.27
2023-03-30T06:24:08.510Z,19.67
2023-03-30T06:26:39.319Z,19.27
2023-03-30T06:29:07.006Z,19.87
2023-03-30T06:31:35.239Z,19.67
2023-03-30T06:34:23.343Z,21.40
2023-03-30T06:36:52.285Z,19.40
2023-03-30T06:39:22.824Z,19.83
2023-03-30T06:41:52.891Z,20.10
2023-03-30T06:44:40.664Z,19.17
2023-03-30T06:47:14.152Z,19.13
2023-03-30T06:49:42.971Z,19.93
2023-03-30T06:52:27.936Z,20.93
2023-03-30T06:54:56.439Z,20.37
2023-03-30T06:57:24.163Z,19.50
2023-03-30T06:59:52.210Z,19.97
2023-03-30T07:02:43.525Z,20.53
2023-03-30T07:05:25.935Z,19.73
2023-03-30T07:08:00.003Z,20.03
2023-03-30T07:10:27.974Z,19.57
2023-03-30T07:12:57.808Z,18.93
2023-03-30T07:15:26.582Z,19.27
2023-03-30T07:17:54.420Z,19.40
2023-03-30T07:20:22.324Z,19.70
2023-03-30T07:23:11.483Z,18.70
2023-03-30T07:25:42.039Z,21.57
2023-03-30T07:28:23.848Z,17.53
2023-03-30T07:30:52.963Z,17.80
2023-03-30T07:33:22.173Z,19.80
2023-03-30T07:35:50.260Z,19.37
2023-03-30T07:38:23.031Z,18.43
2023-03-30T07:40:53.620Z,18.63
2023-03-30T07:43:23.362Z,18.03
2023-03-30T07:45:51.551Z,18.30
2023-03-30T07:48:25.836Z,17.10
2023-03-30T07:51:04.565Z,18.10
2023-03-30T07:53:35.041Z,16.63
2023-03-30T07:56:07.730Z,16.00
2023-03-30T07:58:43.547Z,16.20
2023-03-30T08:01:13.337Z,16.03
2023-03-30T08:03:59.332Z,14.53
2023-03-30T08:06:29.305Z,15.67
2023-03-30T08:08:59.513Z,16.00
2023-03-30T08:11:27.442Z,16.23
2023-03-30T08:13:54.991Z,15.40
2023-03-30T08:16:22.779Z,15.63
2023-03-30T08:18:54.779Z,16.67
2023-03-30T08:21:25.679Z,15.77
2023-03-30T08:23:53.785Z,16.27
2023-03-30T08:26:21.598Z,17.27
2023-03-30T08:28:49.070Z,16.60
2023-03-30T08:31:18.279Z,17.47
2023-03-30T08:33:45.991Z,16.77
2023-03-30T08:36:13.852Z,17.87
2023-03-30T08:38:42.071Z,18.03
2023-03-30T08:41:24.898Z,17.47
2023-03-30T08:44:02.879Z,18.97
2023-03-30T08:46:31.350Z,19.50
2023-03-30T08:49:04.651Z,19.60
2023-03-30T08:51:34.188Z,18.20
2023-03-30T08:54:07.896Z,18.70
2023-03-30T08:56:58.494Z,17.10
2023-03-30T08:59:53.638Z,16.87
2023-03-30T09:02:38.216Z,17.10
2023-03-30T09:05:30.876Z,17.00
2023-03-30T09:07:58.470Z,16.03
2023-03-30T09:10:29.283Z,16.23
2023-03-30T09:13:00.084Z,15.70
2023-03-30T09:15:32.505Z,15.80
2023-03-30T09:18:06.850Z,16.23
2023-03-30T09:20:37.953Z,15.00
2023-03-30T09:23:07.312Z,14.87
2023-03-30T09:25:47.420Z,14.50
2023-03-30T09:28:42.327Z,14.43
2023-03-30T09:31:27.775Z,14.65
2023-03-30T09:34:04.990Z,13.10
2023-03-30T09:37:08.347Z,12.23
2023-03-30T09:39:37.812Z,12.57
2023-03-30T09:42:35.879Z,11.80
2023-03-30T09:45:17.785Z,11.43
2023-03-30T09:47:45.963Z,11.48
2023-03-30T09:50:24.836Z,11.20
2023-03-30T09:53:04.050Z,9.93
2023-03-30T09:55:36.575Z,10.70
2023-03-30T09:58:40.599Z,11.13
2023-03-30T10:01:14.211Z,11.43
2023-03-30T10:03:44.125Z,12.93
2023-03-30T10:06:13.415Z,12.43
2023-03-30T10:08:51.400Z,13.35
2023-03-30T10:11:38.107Z,13.93
2023-03-30T10:14:07.543Z,13.37
2023-03-30T10:16:35.778Z,14.73
2023-03-30T10:19:10.875Z,12.80
2023-03-30T10:21:51.282Z,14.07
2023-03-30T10:24:25.696Z,12.80
2023-03-30T10:26:57.339Z,13.07
2023-03-30T10:29:28.391Z,12.10
2023-03-30T10:32:15.134Z,13.17
2023-03-30T10:34:46.991Z,13.03
2023-03-30T10:37:26.513Z,12.60
2023-03-30T10:39:56.268Z,11.33
2023-03-30T10:42:26.981Z,12.25
2023-03-30T10:44:58.715Z,11.52
2023-03-30T10:47:44.451Z,12.43
2023-03-30T10:50:36.104Z,12.32
2023-03-30T10:53:26.924Z,12.10
2023-03-30T10:56:07.147Z,11.77
2023-03-30T10:58:56.670Z,11.43
2023-03-30T11:01:37.411Z,10.98
2023-03-30T11:04:26.966Z,11.18
2023-03-30T11:06:58.576Z,11.55
2023-03-30T11:09:39.737Z,11.50
2023-03-30T11:12:13.957Z,11.43
2023-03-30T11:14:49.610Z,11.32
2023-03-30T11:17:27.260Z,10.18
2023-03-30T11:20:01.936Z,10.50
2023-03-30T11:22:43.690Z,10.82
2023-03-30T11:25:24.333Z,12.48
2023-03-30T11:27:59.778Z,10.80
2023-03-30T11:30:32.918Z,11.03
2023-03-30T11:33:25.445Z,11.07
2023-03-30T11:36:14.043Z,11.80
2023-03-30T11:38:49.410Z,11.97
2023-03-30T11:41:24.467Z,13.13
2023-03-30T11:43:56.125Z,12.27
2023-03-30T11:46:28.890Z,12.83
2023-03-30T11:49:00.229Z,11.70
2023-03-30T11:51:52.912Z,11.97
2023-03-30T11:54:28.177Z,12.40
2023-03-30T11:57:11.384Z,12.63
2023-03-30T11:59:39.355Z,11.40
2023-03-30T12:02:20.977Z,11.52
2023-03-30T12:04:58.076Z,11.27
2023-03-30T12:07:43.879Z,11.80
2023-03-30T12:10:40.638Z,11.30
2023-03-30T12:13:16.715Z,11.33
2023-03-30T12:15:51.696Z,11.07
2023-03-30T12:18:51.480Z,12.33
2023-03-30T12:21:41.439Z,10.97
2023-03-30T12:25:00.989Z,12.40
2023-03-30T12:27:31.530Z,11.83
2023-03-30T12:30:14.367Z,13.20
2023-03-30T12:33:12.538Z,13.80
2023-03-30T12:35:48.610Z,12.30
2023-03-30T12:38:21.927Z,13.13
2023-03-30T12:41:14.771Z,13.60
2023-03-30T12:44:04.531Z,11.97
2023-03-30T12:46:42.268Z,12.00
2023-03-30T12:49:10.748Z,10.97
2023-03-30T12:52:14.029Z,11.75
2023-03-30T12:55:12.782Z,11.07
2023-03-30T12:58:17.521Z,10.65
2023-03-30T13:00:54.401Z,12.23
2023-03-30T13:03:36.856Z,10.18
2023-03-30T13:06:09.218Z,11.57
2023-03-30T13:08:42.328Z,10.40
2023-03-30T13:11:18.948Z,10.68
2023-03-30T13:13:46.684Z,12.05
2023-03-30T13:16:14.588Z,11.77
2023-03-30T13:18:55.774Z,11.88
2023-03-30T13:21:26.088Z,10.25
2023-03-30T13:24:04.425Z,11.95
2023-03-30T13:26:42.709Z,12.43
2023-03-30T13:29:17.387Z,13.20
2023-03-30T13:32:03.030Z,13.17
2023-03-30T13:35:07.387Z,11.63
2023-03-30T13:37:44.517Z,11.10
2023-03-30T13:40:35.050Z,11.67
2023-03-30T13:43:18.657Z,10.97
2023-03-30T13:45:46.063Z,12.47
2023-03-30T13:48:26.434Z,12.43
2023-03-30T13:51:00.013Z,12.37
2023-03-30T13:53:32.836Z,14.03
2023-03-30T13:56:00.470Z,12.50
2023-03-30T13:58:34.081Z,14.13
2023-03-30T14:01:11.337Z,13.13
2023-03-30T14:04:10.449Z,14.77
2023-03-30T14:06:47.214Z,14.07
2023-03-30T14:09:26.462Z,13.83
2023-03-30T14:11:58.060Z,11.80
2023-03-30T14:14:37.595Z,14.13
2023-03-30T14:17:18.228Z,14.10
2023-03-30T14:19:57.797Z,13.73
2023-03-30T14:22:27.521Z,14.53
2023-03-30T14:25:02.948Z,16.30
2023-03-30T14:27:39.030Z,14.43
2023-03-30T14:30:25.949Z,16.87
2023-03-30T14:33:07.416Z,13.40
2023-03-30T14:35:40.339Z,15.30
2023-03-30T14:38:16.858Z,14.23
2023-03-30T14:40:45.841Z,14.57
2023-03-30T14:43:16.691Z,14.63
2023-03-30T14:45:44.703Z,15.33
2023-03-30T14:48:23.012Z,14.70
2023-03-30T14:50:51.524Z,14.23
2023-03-30T14:53:27.657Z,14.07
2023-03-30T14:55:58.532Z,14.53
2023-03-30T14:58:30.412Z,15.77
2023-03-30T15:01:01.747Z,14.40
2023-03-30T15:03:34.384Z,12.97
2023-03-30T15:06:07.929Z,14.68
2023-03-30T15:08:41.202Z,13.90
2023-03-30T15:11:12.890Z,14.35
2023-03-30T15:13:49.104Z,13.38
2023-03-30T15:16:23.661Z,13.27
2023-03-30T15:18:53.494Z,12.65
2023-03-30T15:21:22.103Z,17.40
2023-03-30T15:23:51.150Z,14.02
2023-03-30T15:26:19.390Z,22.00
2023-03-30T15:28:51.234Z,16.95
2023-03-30T15:31:20.756Z,13.52
2023-03-30T15:33:54.170Z,13.35
2023-03-30T15:36:37.126Z,12.93
2023-03-30T15:39:23.184Z,12.68
2023-03-30T15:41:56.560Z,13.20
2023-03-30T15:44:24.416Z,13.68
2023-03-30T15:46:56.395Z,12.63
2023-03-30T15:49:55.739Z,12.67
2023-03-30T15:52:29.681Z,13.65
2023-03-30T15:54:57.454Z,13.20
2023-03-30T15:57:29.711Z,12.68
2023-03-30T16:00:05.622Z,13.23
2023-03-30T16:02:40.495Z,13.67
2023-03-30T16:05:21.006Z,13.20
2023-03-30T16:07:48.754Z,13.90
2023-03-30T16:10:22.126Z,14.37
2023-03-30T16:12:51.193Z,12.13
2023-03-30T16:15:28.577Z,12.90
2023-03-30T16:17:57.848Z,13.20
2023-03-30T16:20:31.536Z,14.80
2023-03-30T16:22:59.979Z,14.77
2023-03-30T16:28:01.253Z,14.07
2023-03-30T16:30:34.970Z,16.47
2023-03-30T16:33:03.333Z,16.63
2023-03-30T16:35:32.237Z,15.93
2023-03-30T16:38:00.759Z,15.30
2023-03-30T16:40:41.506Z,16.30
2023-03-30T16:43:12.395Z,17.30
2023-03-30T16:45:40.296Z,17.87
2023-03-30T16:48:08.699Z,16.30
2023-03-30T16:50:50.365Z,17.37
2023-03-30T16:53:20.076Z,16.13
2023-03-30T16:55:47.833Z,17.27
2023-03-30T16:58:17.999Z,19.67
2023-03-30T17:00:55.953Z,18.10
2023-03-30T17:03:27.093Z,17.03
2023-03-30T17:05:55.870Z,17.20
2023-03-30T17:08:26.345Z,18.93
2023-03-30T17:11:05.696Z,20.10
2023-03-30T17:13:36.595Z,19.83
2023-03-30T17:16:06.434Z,20.87
2023-03-30T17:18:36.607Z,20.87
2023-03-30T17:21:05.192Z,22.80
2023-03-30T17:23:34.125Z,21.00
2023-03-30T17:26:04.434Z,22.93
2023-03-30T17:28:36.393Z,22.33
2023-03-30T17:31:15.299Z,24.07
2023-03-30T17:33:44.892Z,22.53
2023-03-30T17:36:17.746Z,23.30
2023-03-30T17:38:46.280Z,27.13
2023-03-30T17:41:16.038Z,26.73
2023-03-30T17:43:44.751Z,24.73
2023-03-30T17:46:14.334Z,25.80
2023-03-30T17:48:42.846Z,24.60
2023-03-30T17:51:11.054Z,25.23
2023-03-30T17:53:40.054Z,27.57
2023-03-30T17:56:08.295Z,28.53
2023-03-30T17:58:37.397Z,27.60
2023-03-30T18:01:08.427Z,29.30
2023-03-30T18:03:39.853Z,28.13
2023-03-30T18:06:07.960Z,28.73
2023-03-30T18:08:36.378Z,29.60
2023-03-30T18:11:05.061Z,28.73
2023-03-30T18:13:33.573Z,29.50
2023-03-30T18:16:01.970Z,30.80
2023-03-30T18:18:31.273Z,28.33
2023-03-30T18:21:04.936Z,31.30
2023-03-30T18:23:34.649Z,29.33
2023-03-30T18:26:09.323Z,29.03
2023-03-30T18:28:44.548Z,31.83
2023-03-30T18:31:13.141Z,31.90
2023-03-30T18:33:41.483Z,31.33
2023-03-30T18:36:13.368Z,28.93
2023-03-30T18:38:43.141Z,32.63
2023-03-30T18:41:13.337Z,34.23
2023-03-30T18:43:42.290Z,31.50
2023-03-30T18:46:13.033Z,31.37
2023-03-30T18:48:41.433Z,32.00
2023-03-30T18:51:11.306Z,32.53
2023-03-30T18:53:39.689Z,32.37
2023-03-30T18:56:08.034Z,33.27
2023-03-30T18:58:42.325Z,35.63
2023-03-30T19:01:13.009Z,38.17
2023-03-30T19:03:42.259Z,36.87
2023-03-30T19:06:14.019Z,39.63
2023-03-30T19:08:43.799Z,42.87
2023-03-30T19:11:16.430Z,43.87
2023-03-30T19:13:44.690Z,42.93
2023-03-30T19:16:12.630Z,39.00
2023-03-30T19:18:41.082Z,37.40
2023-03-30T19:21:18.077Z,36.37
2023-03-30T19:23:46.930Z,34.20
2023-03-30T19:26:15.130Z,35.80
2023-03-30T19:28:44.085Z,32.97
2023-03-30T19:31:16.018Z,27.10
2023-03-30T19:33:44.524Z,27.20
2023-03-30T19:36:12.469Z,25.63
2023-03-30T19:38:41.037Z,24.23
2023-03-30T19:41:09.411Z,22.33
2023-03-30T19:43:37.663Z,22.50
2023-03-30T19:46:06.230Z,23.23
2023-03-30T19:48:35.055Z,20.80
2023-03-30T19:51:03.539Z,16.70
2023-03-30T19:53:33.144Z,16.60
2023-03-30T19:56:02.563Z,14.17
2023-03-30T19:58:32.117Z,11.53
2023-03-30T20:01:05.552Z,10.67
2023-03-30T20:03:36.628Z,11.10
2023-03-30T20:06:15.117Z,10.30
2023-03-30T20:08:45.977Z,10.63
2023-03-30T20:11:13.890Z,10.10
2023-03-30T20:13:46.024Z,8.63
2023-03-30T20:16:20.513Z,7.70
2023-03-30T20:18:51.149Z,8.27
2023-03-30T20:21:19.700Z,8.33
2023-03-30T20:23:48.277Z,9.60
2023-03-30T20:26:16.990Z,7.50
2023-03-30T20:28:45.764Z,6.93
2023-03-30T20:31:14.225Z,8.97
2023-03-30T20:33:43.347Z,9.53
2023-03-30T20:36:13.450Z,7.87
2023-03-30T20:38:41.813Z,7.63
2023-03-30T20:41:11.700Z,6.67
2023-03-30T20:43:55.695Z,7.13
2023-03-30T20:46:26.084Z,7.80
2023-03-30T20:48:54.195Z,7.77
2023-03-30T20:51:23.596Z,6.63
2023-03-30T20:53:52.181Z,6.23
2023-03-30T20:56:20.212Z,5.87
2023-03-30T20:58:48.103Z,5.83
2023-03-30T21:01:27.391Z,4.80
2023-03-30T21:04:00.530Z,5.10
2023-03-30T21:06:30.868Z,5.17
2023-03-30T21:09:01.786Z,5.03
2023-03-30T21:11:30.798Z,5.07
2023-03-30T21:13:59.951Z,5.10
2023-03-30T21:16:29.793Z,4.40
2023-03-30T21:18:58.730Z,4.43
2023-03-30T21:21:27.380Z,4.87
2023-03-30T21:23:57.538Z,4.80
2023-03-30T21:26:27.273Z,4.37
2023-03-30T21:29:02.938Z,4.77
2023-03-30T21:31:32.694Z,4.63
2023-03-30T21:34:01.230Z,4.83
2023-03-30T21:36:29.426Z,4.77
2023-03-30T21:39:00.025Z,4.73
2023-03-30T21:41:28.972Z,4.63
2023-03-30T21:43:57.204Z,4.57
2023-03-30T21:46:26.983Z,5.77
2023-03-30T21:48:54.995Z,5.93
2023-03-30T21:51:28.271Z,6.27
2023-03-30T21:53:56.556Z,7.60
2023-03-30T21:56:26.445Z,6.67
2023-03-30T21:58:54.978Z,7.83
2023-03-30T22:01:26.112Z,8.67
2023-03-30T22:03:55.584Z,8.57
2023-03-30T22:06:23.751Z,8.87
2023-03-30T22:08:54.394Z,8.80
2023-03-30T22:11:25.115Z,9.57
2023-03-30T22:13:55.742Z,10.23
2023-03-30T22:16:28.267Z,12.67
2023-03-30T22:18:56.970Z,13.60
2023-03-30T22:21:29.415Z,13.77
2023-03-30T22:23:57.688Z,15.20
2023-03-30T22:26:27.413Z,16.70
2023-03-30T22:28:55.625Z,17.07
2023-03-30T22:31:23.544Z,17.93
2023-03-30T22:33:51.569Z,17.53
2023-03-30T22:36:25.426Z,19.40
2023-03-30T22:38:53.365Z,20.50
2023-03-30T22:41:24.382Z,23.07
2023-03-30T22:43:53.304Z,21.37
2023-03-30T22:46:21.296Z,20.33
2023-03-30T22:48:49.987Z,23.40
2023-03-30T22:51:26.718Z,23.63
2023-03-30T22:53:59.491Z,23.93
2023-03-30T22:56:28.739Z,21.97
2023-03-30T22:58:56.666Z,23.57
2023-03-30T23:01:24.714Z,23.40
2023-03-30T23:03:53.611Z,23.57
2023-03-30T23:06:21.602Z,25.47
2023-03-30T23:08:49.632Z,25.50
2023-03-30T23:11:17.460Z,25.37
2023-03-30T23:13:45.368Z,23.53
2023-03-30T23:16:12.970Z,25.03
2023-03-30T23:18:41.070Z,25.10
2023-03-30T23:21:11.244Z,24.20
2023-03-30T23:23:39.247Z,24.73
2023-03-30T23:26:09.896Z,24.07
2023-03-30T23:28:42.256Z,24.63
2023-03-30T23:31:12.721Z,25.97
2023-03-30T23:33:41.552Z,25.60
2023-03-30T23:36:10.455Z,24.37
2023-03-30T23:38:40.135Z,24.93
2023-03-30T23:41:07.800Z,24.37
2023-03-30T23:43:35.828Z,22.77
2023-03-30T23:46:03.686Z,24.30
2023-03-30T23:48:32.039Z,22.33
2023-03-30T23:50:59.922Z,24.90
2023-03-30T23:53:27.984Z,24.73
2023-03-30T23:55:55.643Z,26.97
2023-03-30T23:58:23.558Z,24.27
